Terminal Aerodrome Forecast
Issued by NWS Tuscon, AZ

Home | Current Version | Previous Version | Text Only | Print | Product List | Glossary On
Versions: 1 2 3 4 5 6 7 8 9 10 11 12 13 14 15 16 17 18 19 20
000
FTUS45 KTWC 182300
TAFTUS
TAF
KTUS 182322Z 1900/1924 VRB03KT P6SM OVC070
     FM190600 15006KT P6SM BKN060
     FM191600 VRB03KT P6SM BKN070
     FM192100 29007KT P6SM SCT080=

USA.gov is the U.S. government's official web portal to all federal, state and local government web resources and services.